Aérodrome :
LOGIN :

S'inscrire | Disclaimer

   EN    FR    IT 

 










Légende :    VFR   VFR Marginal   IFR   IFR Intensif   IFR Très Intensif
Visi : 
Plafond : 
>= 8 km
>= 3000ft
5 à 8 km
1000 à 3000 ft
1500m à 5 km
500 à 1000 ft
800 à 1500m
200 à 500 ft
< 800m
< 200 ft
Symboles :   Orages  Brouillard  Fortes neiges  Fortes précipitations  Vent > 20 kt
SIGMETs :   Divers  Orages  Givrage  Turbulence  Onde Orograph.  Cendres Volcan.







- Altitude de l'aérodrome : 194 ft


EBCV - Chièvres

DERNIER METAR :
  • 260855Z AUTO 26014KT 9999 BKN027/// 11/04 Q1018 BLU

METARs EXPIRÉS :
  • 260825Z AUTO 26012KT 9999 BKN027/// 11/05 Q1018 BLU
  • 260821Z AUTO 26012KT 9999 BKN027/// 10/05 Q1018 BLU
  • 260755Z AUTO 26011KT 9999 BKN024/// 10/05 Q1018 WHT
  • 260725Z AUTO 25013KT 9999 BKN021/// 10/05 Q1018 WHT
  • 260703Z AUTO 25011KT 9999 SCT019/// 10/06 Q1018 WHT
  • 260655Z AUTO 25011KT 9999 FEW019/// 10/06 Q1018 BLU
  • 260625Z AUTO 24009KT 9999 NCD 09/06 Q1018 BLU

TAF TAF EBCV
Valide du 26 à 10h jusqu'au 26 à 19h UTC


260841Z 2610/2619 25012KT 9999 FEW035
PROB30
TEMPO 2610/2615 26015G25KT 6000 -SHRA SCT025 SCT040 BY EBWM
Pas de NOTAMs connus pour ce terrain.



MET'MAP, la Météo Aéronautique d'un coup d'oeil ! - Copyright ORBIFLY Décembre 2007 - Disclaimer

ORBIFLY MET'MAP TEAM :

Programmation & Développement : Alexandra Zaïnal
Conception & Développement : Baudouin d'Aumeries
Co-Programmation & Développement : Marc-Olivier Méhu
Soutien technique & logistique : Manuel Goepfert

Contact : metmap@orbifly.com




SOURCES & CREDITS :

   NOAA